Home > Products > Valid Products > MTR

000
SAUS43 KBIS 242053
MTRN60
METAR KN60 242052Z AUTO 30013KT M04/M13 A2994 RMK AO1 SLP176
T10391133 53011





000
SAUS43 KBIS 241954
MTRN60
METAR KN60 241952Z AUTO 30014KT M04/M17 A2994 RMK AO1 SLP174
T10441172





000
SAUS43 KBIS 241954
MTRN60
METAR KN60 241952Z AUTO 30014KT M04/M17 A2994 RMK AO1 SLP174
T10441172





000
SAUS43 KBIS 241854
MTRN60
METAR KN60 241852Z AUTO 34012KT M05/M17 A2992 RMK AO1 SLP166
T10501172





000
SAUS43 KBIS 241754
MTRN60
METAR KN60 241752Z AUTO 33012KT M07/M16 A2991 RMK AO1 SLP165
T10671156 11067 21150 50012





000
SAUS43 KBIS 241654
MTRN60
METAR KN60 241652Z AUTO 35012KT M09/M15 A2991 RMK AO1 SLP167
T10891150





000
SAUS43 KBIS 241554
MTRN60
METAR KN60 241552Z AUTO 34014KT M11/M14 A2990 RMK AO1 SLP162
T11111144





000
SAUS43 KBIS 241454
MTRN60
METAR KN60 241452Z AUTO 32010KT M13/M16 A2987 RMK AO1 SLP156
T11331161 53018





000
SAUS43 KBIS 241354
MTRN60
METAR KN60 241352Z AUTO 32010KT M14/M17 A2985 RMK AO1 SLP149
T11441167





000
SAUS43 KBIS 241254
MTRN60
METAR KN60 241252Z AUTO 33008KT M15/M17 A2983 RMK AO1 SLP141
T11501172





000
SAUS43 KBIS 241154
MTRN60
METAR KN60 241152Z AUTO 32009KT M14/M17 A2982 RMK AO1 SLP136
T11441167 11106 21144 53016





000
SAUS43 KBIS 241054
MTRN60
METAR KN60 241052Z AUTO 33008KT M14/M16 A2979 RMK AO1 SLP128
T11391161





000
SAUS43 KBIS 240953
MTRN60
METAR KN60 240952Z AUTO 34012KT M14/M16 A2977 RMK AO1 SLP120
T11391161





000
SAUS43 KBIS 240953
MTRN60
METAR KN60 240952Z AUTO 34012KT M14/M16 A2977 RMK AO1 SLP120
T11391161





000
SAUS43 KBIS 240854
MTRN60
METAR KN60 240852Z AUTO 34011KT M13/M16 A2977 RMK AO1 SLP118
T11331156 53006





000
SAUS43 KBIS 240754
MTRN60
METAR KN60 240752Z AUTO 34011KT M13/M15 A2975 RMK AO1 SLP112
T11331150





000
SAUS43 KBIS 240653
MTRN60
METAR KN60 240652Z AUTO 33012KT M12/M14 A2975 RMK AO1 SLP111
T11221144





000
SAUS43 KBIS 240554
MTRN60
METAR KN60 240552Z AUTO 33016KT M11/M13 A2975 RMK AO1 SLP108
T11061133 11072 21106 400441106 53009





000
SAUS43 KBIS 240453
MTRN60
METAR KN60 240452Z AUTO 34013G21KT M10/M12 A2973 RMK AO1 SLP102
T11001122





000
SAUS43 KBIS 240354
MTRN60
METAR KN60 240352Z AUTO 34014G21KT M09/M13 A2973 RMK AO1 PK WND
34031/0310 SLP100 T10941128





000
SAUS43 KBIS 240354
MTRN60
METAR KN60 240352Z AUTO 34014G21KT M09/M13 A2973 RMK AO1 PK WND
34031/0310 SLP100 T10941128





000
SAUS43 KBIS 240254
MTRN60
METAR KN60 240252Z AUTO 33022G28KT M08/M12 A2972 RMK AO1 PK WND
34030/0158 SLP095 T10831117 53010





000
SAUS43 KBIS 240154
MTRN60
METAR KN60 240152Z AUTO 33025G33KT M08/M11 A2969 RMK AO1 PK WND
34033/0150 SLP083 T10781111





000
SAUS43 KBIS 240054
MTRN60
METAR KN60 240052Z AUTO 33022G32KT M07/M11 A2969 RMK AO1 PK WND
33032/0048 SLP079 T10721111





000
SAUS43 KBIS 232354
MTRN60
METAR KN60 232352Z AUTO 32021G25KT M07/M11 A2969 RMK AO1 PK WND
32034/2303 SLP077 T10721111 11056 21078 51023





000
SAUS43 KBIS 232253
MTRN60
METAR KN60 232252Z AUTO 32024G34KT M07/M12 A2967 RMK AO1 PK WND
31034/2243 SLP070 T10721117





000
SAUS43 KBIS 232154
MTRN60
METAR KN60 232152Z AUTO 32024G33KT M07/M12 A2964 RMK AO1 PK WND
31033/2053 SLP061 T10721122





000
SAUS43 KBIS 232154
MTRN60
METAR KN60 232152Z AUTO 32024G33KT M07/M12 A2964 RMK AO1 PK WND
31033/2053 SLP061 T10721122





000
SAUS43 KBIS 232053
MTRN60
METAR KN60 232052Z AUTO 31028G34KT M07/M12 A2961 RMK AO1 PK WND
32036/2015 SLP052 T10721122 51018





000
SAUS43 KBIS 231954
MTRN60
METAR KN60 231952Z AUTO 31025G33KT M07/M11 A2960 RMK AO1 PK WND
32035/1902 SLP048 T10671111





000
SAUS43 KBIS 231954
MTRN60
METAR KN60 231952Z AUTO 31025G33KT M07/M11 A2960 RMK AO1 PK WND
32035/1902 SLP048 T10671111





000
SAUS43 KBIS 231853
MTRN60
METAR KN60 231852Z AUTO 31026G35KT M06/M11 A2957 RMK AO1 PK WND
30036/1804 SLP039 T10611106





000
SAUS43 KBIS 231754
MTRN60
METAR KN60 231752Z AUTO 30027G35KT M06/M09 A2956 RMK AO1 PK WND
31043/1653 SLP032 T10561094 10033 21056 53026





000
SAUS43 KBIS 231654
MTRN60
METAR KN60 231652Z AUTO 31025G39KT M05/M09 A2951 RMK AO1 PK WND
30041/1628 SLP015 T10501094





000
SAUS43 KBIS 231554
MTRN60
METAR KN60 231552Z AUTO 29026G36KT M05/M08 A2948 RMK AO1 PK WND
29039/1524 SLP008 T10501083





000
SAUS43 KBIS 231554
MTRN60
METAR KN60 231552Z AUTO 29026G36KT M05/M08 A2948 RMK AO1 PK WND
29039/1524 SLP008 T10501083





000
SAUS43 KBIS 231454
MTRN60
METAR KN60 231452Z AUTO 29019G38KT M04/M08 A2948 RMK AO1 PK WND
29038/1447 SLP004 T10391078 51028





000
SAUS43 KBIS 231354
MTRN60
METAR KN60 231352Z AUTO 30021G33KT M03/M08 A2944 RMK AO1 PK WND
30036/1336 SLP992 T10281083





000
SAUS43 KBIS 231253
MTRN60
METAR KN60 231252Z AUTO 29022G32KT 01/M04 A2942 RMK AO1 PK WND
29034/1236 SLP979 T00061044





000
SAUS43 KBIS 231154
MTRN60
METAR KN60 231152Z AUTO 29015G30KT 03/M02 A2939 RMK AO1 PK WND
29030/1144 SLP966 T00331022 10044 20022 53012





000
SAUS43 KBIS 231054
MTRN60
METAR KN60 231052Z AUTO 27015KT 04/M01 A2937 RMK AO1 PK WND
27026/1012 SLP958 T00391006





000
SAUS43 KBIS 230954
MTRN60
METAR KN60 230952Z AUTO 27015G24KT 04/00 A2935 RMK AO1 SLP952
T00440000





000
SAUS43 KBIS 230954
MTRN60
METAR KN60 230952Z AUTO 27015G24KT 04/00 A2935 RMK AO1 SLP952
T00440000





000
SAUS43 KBIS 230854
MTRN60
METAR KN60 230852Z AUTO 26010KT 04/00 A2935 RMK AO1 SLP951 T00390000
51012





000
SAUS43 KBIS 230754
MTRN60
METAR KN60 230752Z AUTO 26010KT 02/M01 A2934 RMK AO1 SLP948
T00221011





000
SAUS43 KBIS 230653
MTRN60
METAR KN60 230652Z AUTO 24009KT 03/M01 A2933 RMK AO1 SLP947
T00281006





000
SAUS43 KBIS 230554
MTRN60
METAR KN60 230552Z AUTO 27007KT 03/01 A2931 RMK AO1 SLP940 T00330011
10050 21006 400671039 50005





000
SAUS43 KBIS 230453
MTRN60
METAR KN60 230452Z AUTO 26010KT 03/01 A2932 RMK AO1 SLP944 T00280011





000
SAUS43 KBIS 230354
MTRN60
METAR KN60 230352Z AUTO 24007KT 00/M01 A2931 RMK AO1 SLP944
T00001011





000
SAUS43 KBIS 230254
MTRN60
METAR KN60 230252Z AUTO 26004KT 02/M02 A2930 RMK AO1 SLP939
T00171017 51013





000
SAUS43 KBIS 230154
MTRN60
METAR KN60 230152Z AUTO 26007KT 02/M01 A2929 RMK AO1 SLP936
T00171011





000
SAUS43 KBIS 230053
MTRN60
METAR KN60 230052Z AUTO 25005KT 04/00 A2928 RMK AO1 SLP933 T00390000





000
SAUS43 KBIS 222354
MTRN60
METAR KN60 222352Z AUTO 14004KT 04/00 A2926 RMK AO1 SLP926 T00440000
10067 20033 58015





000
SAUS43 KBIS 222253
MTRN60
METAR KN60 222252Z AUTO 22005KT 04/M01 A2931 RMK AO1 SLP943
T00391006





000
SAUS43 KBIS 222154
MTRN60
METAR KN60 222152Z AUTO 20006KT 05/M01 A2930 RMK AO1 SLP940
T00501006





000
SAUS43 KBIS 222154
MTRN60
METAR KN60 222152Z AUTO 20006KT 05/M01 A2930 RMK AO1 SLP940
T00501006





000
SAUS43 KBIS 222053
MTRN60
METAR KN60 222052Z AUTO 19008KT 06/M01 A2930 RMK AO1 SLP939
T00561006 56024





000
SAUS43 KBIS 221954
MTRN60
METAR KN60 221952Z AUTO 14005KT 06/M01 A2931 RMK AO1 SLP941
T00611006





000
SAUS43 KBIS 221854
MTRN60
METAR KN60 221852Z AUTO 10005KT 04/M01 A2934 RMK AO1 SLP953
T00391006





000
SAUS43 KBIS 221754
MTRN60
METAR KN60 221752Z AUTO 13008KT 03/M01 A2938 RMK AO1 SLP967
T00331006 10033 21039 58026





000
SAUS43 KBIS 221654
MTRN60
METAR KN60 221652Z AUTO 15006KT 02/M01 A2942 RMK AO1 PRESFR SLP983
T00171011





000
SAUS43 KBIS 221554
MTRN60
METAR KN60 221552Z AUTO 17004KT 01/M01 A2946 RMK AO1 SLP996
T00061011





000
SAUS43 KBIS 221554
MTRN60
METAR KN60 221552Z AUTO 17004KT 01/M01 A2946 RMK AO1 SLP996
T00061011





000
SAUS43 KBIS 221454
MTRN60
METAR KN60 221452Z AUTO 13004KT M01/M02 A2946 RMK AO1 SLP998
T10111022 56021





000
SAUS43 KBIS 221354
MTRN60
METAR KN60 221352Z AUTO 14005KT M01/M03 A2948 RMK AO1 SLP001
T10111028





000
SAUS43 KBIS 221253
MTRN60
METAR KN60 221252Z AUTO 16003KT M02/M03 A2950 RMK AO1 SLP011
T10221033





000
SAUS43 KBIS 221154
MTRN60
METAR KN60 221152Z AUTO 18004KT M04/M04 A2953 RMK AO1 SLP019
T10391044 10006 21039 58022





000
SAUS43 KBIS 221054
MTRN60
METAR KN60 221052Z AUTO 19005KT M03/M03 A2955 RMK AO1 SLP025
T10281033





000
SAUS43 KBIS 220954
MTRN60
METAR KN60 220952Z AUTO 00000KT M02/M03 A2958 RMK AO1 SLP032
T10171028





000
SAUS43 KBIS 220854
MTRN60
METAR KN60 220852Z AUTO 25005KT M01/M03 A2960 RMK AO1 SLP037
T10111028 57013





000
SAUS43 KBIS 220754
MTRN60
METAR KN60 220752Z AUTO 00000KT M02/M03 A2961 RMK AO1 SLP042
T10171028





000
SAUS43 KBIS 220654
MTRN60
METAR KN60 220652Z AUTO 26003KT M01/M02 A2962 RMK AO1 SLP046
T10061022





000
SAUS43 KBIS 220554
MTRN60
METAR KN60 220552Z AUTO 25007KT M01/M02 A2963 RMK AO1 SLP052
T10111022 10050 21022 400891061 55006





000
SAUS43 KBIS 220454
MTRN60
METAR KN60 220452Z AUTO 26007KT M01/M03 A2963 RMK AO1 SLP053
T10111028





000
SAUS43 KBIS 220354
MTRN60
METAR KN60 220352Z AUTO 26007KT M01/M03 A2964 RMK AO1 SLP057
T10061028





000
SAUS43 KBIS 220253
MTRN60
METAR KN60 220252Z AUTO 26006KT M01/M02 A2966 RMK AO1 SLP065
T10061022 51002





000
SAUS43 KBIS 220154
MTRN60
METAR KN60 220152Z AUTO 26010KT 02/M02 A2966 RMK AO1 SLP065
T00171017





000
SAUS43 KBIS 220053
MTRN60
METAR KN60 220052Z AUTO 28009KT 02/M02 A2966 RMK AO1 SLP067
T00221017





000
SAUS43 KBIS 212354
MTRN60
METAR KN60 212352Z AUTO 28014KT 04/M01 A2965 RMK AO1 SLP062
T00441011 10089 20039 53009





000
SAUS43 KBIS 212253
MTRN60
METAR KN60 212252Z AUTO 28013KT 07/M01 A2964 RMK AO1 SLP058
T00671011





000
SAUS43 KBIS 212154
MTRN60
METAR KN60 212152Z AUTO 25011KT 08/M01 A2962 RMK AO1 SLP050
T00781006





    US Dept of Commerce
    National Oceanic and Atmospheric Administration
    National Weather Service
    1325 East West Highway
    Silver Spring, MD 20910
    Page Author: NWS Internet Services Team
Disclaimer
Information Quality
Credits
Glossary
Privacy Policy
Freedom of Information Act (FOIA)
About Us
Career Opportunities